Gillam, Gillam Airport (CYGX)

NameGillam Airport
CityGillam
CountryCanada
ICAOCYGX
IATAYGX
Altitude145 m
CoordinatesGoogle Map
Live Air TrafficLiveATC.net
METARCYGX 172000Z 27009KT 220V310 15SM FEW025 FEW120 SCT200 BKN220 M05/M13 A3015 RMK SC1AS2CS2CC2 SC TR SLP225
2018-10-17 20:00:00 Wind: West (270°) 4.63 m/s - Visibility: 24140.1 m - Temperature: -5 °C - Dew point: -13 °C - Humidity: 53.9% - Pressure: 1021 hPa
Statistics

The table below shows the detailed information of all flights to/from Gillam, Gillam Airport (CYGX).